CAMANCHE RESERVOIR (CMN)

Elevation: 236' · MOKELUMNE R basin · Operator: East Bay Municipal Utility District

Provisional data, subject to change.
Query executed Saturday at 8:51:47   clock

Select a sensor type for a plot of data.
Note: Reservoir Flows are daily averages.

Earlier

Date RES ELE    STORAGE    RES CHG    TOC STO    ABV TOC    OUTFLOW    INFLOW   
 FEET   AF   AF   AF   AF   CFS   CFS  
05/26/2016 216.04 283550 1548 392100 -108550 473 1331
05/27/2016 216.29 285110 1618 392100 -- 487 1331
05/28/2016 216.55 286740 1590 392100 -- 477 1328
05/29/2016 216.79 288240 1452 392100 -- 457 1328
05/30/2016 217.04 289810 1655 392100 -102290 459 1330
05/31/2016 217.30 291450 1708 392100 -100650 460 1332
06/01/2016 217.55 293030 1567 392100 -99070 462 1333
06/02/2016 217.81 294680 1649 392100 -97420 463 1330
06/03/2016 218.05 296210 1540 392100 -- 458 1329
06/04/2016 218.34 298060 1881 392100 -- 457 1497
06/05/2016 218.65 300040 1920 392100 -92060 457 1613
06/06/2016 219.00 302280 2230 392100 -89830 459 1813
06/07/2016 219.33 304410 2119 375654 -87690 459 1641
06/08/2016 219.62 306280 1905 376822 -85820 461 1540
06/09/2016 219.90 308100 1857 378064 -69964 461 1590
06/10/2016 220.19 309980 1839 379550 -- 464 1569
06/11/2016 220.46 311740 1872 381252 -- 476 1531
06/12/2016 220.73 313500 1656 383068 -69568 476 1524
06/13/2016 221.00 315270 1768 384971 -69701 487 1530
06/14/2016 221.23 316780 1534 386729 -69949 498 1405
06/15/2016 221.48 318420 1626 388712 -70292 515 1462
06/16/2016 221.74 320140 1715 391033 -70893 511 1522
06/17/2016 222.11 322590 2465 392100 -- 514 1358
06/18/2016 222.32 323980 1405 392100 -- 514 1353
06/19/2016 222.55 325510 1527 392100 -66590 516 1368
06/20/2016 222.79 327110 1555 392100 -64990 512 1360
06/21/2016 223.00 328510 1417 392100 -63590 515 1334
06/22/2016 223.16 329580 1116 392100 -62520 516 1143
06/23/2016 223.22 329980 358 392100 -62120 515 761
06/24/2016 223.25 330208 228 -- -- 515 797
06/25/2016 -- -- -- -- -- -- --

Later | Latest

Warning! This data is preliminary and subject to revision.

Show CMN Map | Plot CMN Data | 1 Month CMN Data | Real-Time CMN Data | CMN Info